Terminal Aerodrome Forecast
Issued by NWS

Home | Current Version | Previous Version | Text Only | Print | Product List | Glossary On
Versions: 1 2 3 4 5 6 7 8 9 10 11 12 13
000
FTUS43 KICT 260522
TAFCNU
TAF
KCNU 260522Z 2606/2706 36007KT P6SM VCSH OVC080
      TEMPO 2606/2610 3SM +SHRA OVC040
     FM261200 01005KT 4SM BR VCSH OVC030
     FM261500 01006KT 6SM -SHRA OVC020
     FM270000 01007KT P6SM OVC030=

USA.gov is the U.S. government's official web portal to all federal, state and local government web resources and services.